createdAt,value
2019-02-08T00:00:37.412Z,91.60
2019-02-08T00:01:12.179Z,91.50
2019-02-08T00:01:47.045Z,91.40
2019-02-08T00:02:21.695Z,91.40
2019-02-08T00:02:56.489Z,91.40
2019-02-08T00:03:31.058Z,91.40
2019-02-08T00:04:05.991Z,91.40
2019-02-08T00:04:40.568Z,91.50
2019-02-08T00:05:15.632Z,91.50
2019-02-08T00:05:50.216Z,91.40
2019-02-08T00:06:25.409Z,91.40
2019-02-08T00:06:59.996Z,91.40
2019-02-08T00:07:34.819Z,91.40
2019-02-08T00:08:09.309Z,91.50
2019-02-08T00:08:44.194Z,91.50
2019-02-08T00:09:18.938Z,91.60
2019-02-08T00:09:53.843Z,91.50
2019-02-08T00:10:28.524Z,91.60
2019-02-08T00:11:03.456Z,91.50
2019-02-08T00:11:38.302Z,91.50
2019-02-08T00:12:13.176Z,91.50
2019-02-08T00:12:47.883Z,91.50
2019-02-08T00:13:22.743Z,91.50
2019-02-08T00:13:57.569Z,91.60
2019-02-08T00:14:32.435Z,91.60
2019-02-08T00:15:09.541Z,91.50
2019-02-08T00:15:44.192Z,91.50
2019-02-08T00:16:18.729Z,91.60
2019-02-08T00:16:53.500Z,91.50
2019-02-08T00:17:28.053Z,91.50
2019-02-08T00:18:02.791Z,91.40
2019-02-08T00:18:37.363Z,91.50
2019-02-08T00:19:12.197Z,91.50
2019-02-08T00:19:46.764Z,91.50
2019-02-08T00:20:22.200Z,91.50
2019-02-08T00:20:56.784Z,91.50
2019-02-08T00:21:31.353Z,91.50
2019-02-08T00:22:07.483Z,91.50
2019-02-08T00:22:42.045Z,91.50
2019-02-08T00:23:26.295Z,91.50
2019-02-08T00:23:52.950Z,91.50
2019-02-08T00:24:27.541Z,91.40
2019-02-08T00:25:02.470Z,91.40
2019-02-08T00:25:37.095Z,91.40
2019-02-08T00:26:11.652Z,91.50
2019-02-08T00:26:46.141Z,91.40
2019-02-08T00:27:20.709Z,91.40
2019-02-08T00:27:55.269Z,91.50
2019-02-08T00:28:29.766Z,91.50
2019-02-08T00:29:04.474Z,91.60
2019-02-08T00:29:39.036Z,91.60
2019-02-08T00:30:29.943Z,91.60
2019-02-08T00:31:04.747Z,91.60
2019-02-08T00:31:39.378Z,91.40
2019-02-08T00:32:13.969Z,91.40
2019-02-08T00:32:48.544Z,91.30
2019-02-08T00:33:23.104Z,91.30
2019-02-08T00:33:57.701Z,91.30
2019-02-08T00:34:32.290Z,91.40
2019-02-08T00:35:07.043Z,91.40
2019-02-08T00:35:41.682Z,91.30
2019-02-08T00:36:16.198Z,91.30
2019-02-08T00:36:50.773Z,91.40
2019-02-08T00:37:26.048Z,91.40
2019-02-08T00:38:00.631Z,91.50
2019-02-08T00:38:35.129Z,91.50
2019-02-08T00:39:10.832Z,91.60
2019-02-08T00:39:45.337Z,91.60
2019-02-08T00:40:21.152Z,91.60
2019-02-08T00:40:55.741Z,91.60
2019-02-08T00:41:30.236Z,91.60
2019-02-08T00:42:04.801Z,91.50
2019-02-08T00:42:39.282Z,91.60
2019-02-08T00:43:13.784Z,91.60
2019-02-08T00:43:48.315Z,91.70
2019-02-08T00:44:22.890Z,91.60
2019-02-08T00:44:57.490Z,91.60
2019-02-08T00:45:32.002Z,91.50
2019-02-08T00:46:06.644Z,91.40
2019-02-08T00:46:41.226Z,91.80
2019-02-08T00:47:15.800Z,91.50
2019-02-08T00:47:50.407Z,91.60
2019-02-08T00:48:24.968Z,91.50
2019-02-08T00:48:59.451Z,91.40
2019-02-08T00:49:33.961Z,91.40
2019-02-08T00:50:11.665Z,91.40
2019-02-08T00:50:46.516Z,91.50
2019-02-08T00:51:21.148Z,91.50
2019-02-08T00:51:56.288Z,91.60
2019-02-08T00:52:30.853Z,91.60
2019-02-08T00:53:05.557Z,91.60
2019-02-08T00:53:40.162Z,91.40
2019-02-08T00:54:14.721Z,91.50
2019-02-08T00:54:49.221Z,91.50
2019-02-08T00:55:24.033Z,91.50
2019-02-08T00:55:58.520Z,91.60
2019-02-08T00:56:33.013Z,91.60
2019-02-08T00:57:07.577Z,91.60
2019-02-08T00:57:42.133Z,91.60
2019-02-08T00:58:16.691Z,91.70
2019-02-08T00:58:51.186Z,91.70
2019-02-08T00:59:25.741Z,91.70
2019-02-08T01:00:00.619Z,91.70
2019-02-08T01:00:35.328Z,91.60
2019-02-08T01:01:09.957Z,91.70
2019-02-08T01:01:44.494Z,91.60
2019-02-08T01:02:19.035Z,91.70
2019-02-08T01:02:54.329Z,91.60
2019-02-08T01:03:28.896Z,91.60
2019-02-08T01:04:03.401Z,91.70
2019-02-08T01:04:38.016Z,91.60
2019-02-08T01:05:15.311Z,91.60
2019-02-08T01:05:49.921Z,91.50
2019-02-08T01:06:24.408Z,91.50
2019-02-08T01:06:58.945Z,91.50
2019-02-08T01:07:33.533Z,91.60
2019-02-08T01:08:08.112Z,91.50
2019-02-08T01:08:42.704Z,91.60
2019-02-08T01:09:17.330Z,91.50
2019-02-08T01:09:51.899Z,91.50
2019-02-08T01:10:31.811Z,91.40
2019-02-08T01:11:06.588Z,91.40
2019-02-08T01:11:41.085Z,91.30
2019-02-08T01:12:15.975Z,91.30
2019-02-08T01:12:50.632Z,91.30
2019-02-08T01:13:25.501Z,91.20
2019-02-08T01:13:59.990Z,91.30
2019-02-08T01:14:34.763Z,91.30
2019-02-08T01:15:13.981Z,91.30
2019-02-08T01:15:48.624Z,91.40
2019-02-08T01:16:23.203Z,91.20
2019-02-08T01:16:57.680Z,91.10
2019-02-08T01:17:32.175Z,91.10
2019-02-08T01:18:06.657Z,91.10
2019-02-08T01:18:41.214Z,91.20
2019-02-08T01:19:15.871Z,91.20
2019-02-08T01:19:50.434Z,91.10
2019-02-08T01:20:25.768Z,91.20
2019-02-08T01:21:00.269Z,91.20
2019-02-08T01:21:35.782Z,91.10
2019-02-08T01:22:10.359Z,91.10
2019-02-08T01:22:45.611Z,91.10
2019-02-08T01:23:20.096Z,91.00
2019-02-08T01:23:54.585Z,90.90
2019-02-08T01:24:29.926Z,90.90
2019-02-08T01:25:07.372Z,91.00
2019-02-08T01:25:41.873Z,91.00
2019-02-08T01:26:16.712Z,91.00
2019-02-08T01:26:51.247Z,91.00
2019-02-08T01:27:25.737Z,91.20
2019-02-08T01:28:00.388Z,91.00
2019-02-08T01:28:34.941Z,91.00
2019-02-08T01:29:09.544Z,90.90
2019-02-08T01:29:44.084Z,90.80
2019-02-08T01:30:20.510Z,90.90
2019-02-08T01:30:55.016Z,90.90
2019-02-08T01:31:29.531Z,91.00
2019-02-08T01:32:04.112Z,91.00
2019-02-08T01:32:38.681Z,90.90
2019-02-08T01:33:13.252Z,90.80
2019-02-08T01:33:49.110Z,90.80
2019-02-08T01:34:23.729Z,90.70
2019-02-08T01:34:58.336Z,90.80
2019-02-08T01:35:32.839Z,90.80
2019-02-08T01:36:07.340Z,90.80
2019-02-08T01:36:41.833Z,90.80
2019-02-08T01:37:16.333Z,90.80
2019-02-08T01:37:51.140Z,90.90
2019-02-08T01:38:25.664Z,90.80
2019-02-08T01:39:00.380Z,90.70
2019-02-08T01:39:34.939Z,90.70
2019-02-08T01:40:12.675Z,90.70
2019-02-08T01:40:47.172Z,90.60
2019-02-08T01:41:21.677Z,90.50
2019-02-08T01:41:56.224Z,90.30
2019-02-08T01:42:30.727Z,90.40
2019-02-08T01:43:06.777Z,90.50
2019-02-08T01:43:41.534Z,90.60
2019-02-08T01:44:16.037Z,90.60
2019-02-08T01:44:50.792Z,90.50
2019-02-08T01:45:27.524Z,90.30
2019-02-08T01:46:02.093Z,90.20
2019-02-08T01:46:36.593Z,90.20
2019-02-08T01:47:11.123Z,90.20
2019-02-08T01:47:45.705Z,90.10
2019-02-08T01:48:20.188Z,90.10
2019-02-08T01:48:54.697Z,90.20
2019-02-08T01:49:29.188Z,90.20
2019-02-08T01:50:09.538Z,90.10
2019-02-08T01:50:44.107Z,90.00
2019-02-08T01:51:18.617Z,90.00
2019-02-08T01:51:53.130Z,90.10
2019-02-08T01:52:27.697Z,90.10
2019-02-08T01:53:02.320Z,90.10
2019-02-08T01:53:36.878Z,90.00
2019-02-08T01:54:11.371Z,90.00
2019-02-08T01:54:46.137Z,90.10
2019-02-08T01:55:21.077Z,90.10
2019-02-08T01:55:55.628Z,90.20
2019-02-08T01:56:30.153Z,90.10
2019-02-08T01:57:04.757Z,90.10
2019-02-08T01:57:39.627Z,90.00
2019-02-08T01:58:14.124Z,90.00
2019-02-08T01:58:48.623Z,90.10
2019-02-08T01:59:23.107Z,90.00
2019-02-08T01:59:57.602Z,90.00
2019-02-08T02:00:35.366Z,90.00
2019-02-08T02:01:09.881Z,90.00
2019-02-08T02:01:44.509Z,90.00
2019-02-08T02:02:19.071Z,89.80
2019-02-08T02:02:53.634Z,89.90
2019-02-08T02:03:28.255Z,89.50
2019-02-08T02:04:03.140Z,89.60
2019-02-08T02:04:37.756Z,89.60
2019-02-08T02:05:12.577Z,89.70
2019-02-08T02:05:47.056Z,89.60
2019-02-08T02:06:21.567Z,89.70
2019-02-08T02:06:57.238Z,89.60
2019-02-08T02:07:31.773Z,89.80
2019-02-08T02:08:06.961Z,89.80
2019-02-08T02:08:41.786Z,89.90
2019-02-08T02:09:16.345Z,89.90
2019-02-08T02:09:50.853Z,89.90
2019-02-08T02:10:33.152Z,90.00
2019-02-08T02:11:07.790Z,90.00
2019-02-08T02:11:42.325Z,90.40
2019-02-08T02:12:16.849Z,90.10
2019-02-08T02:12:51.415Z,90.10
2019-02-08T02:13:25.962Z,90.00
2019-02-08T02:14:00.462Z,90.00
2019-02-08T02:14:34.962Z,90.00
2019-02-08T02:15:10.388Z,90.00
2019-02-08T02:15:45.287Z,90.00
2019-02-08T02:16:19.874Z,90.00
2019-02-08T02:16:54.456Z,90.00
2019-02-08T02:17:28.955Z,90.00
2019-02-08T02:18:04.412Z,90.00
2019-02-08T02:18:38.905Z,90.00
2019-02-08T02:19:13.387Z,90.10
2019-02-08T02:19:48.055Z,90.10
2019-02-08T02:20:25.261Z,90.10
2019-02-08T02:20:59.881Z,90.10
2019-02-08T02:21:34.392Z,90.00
2019-02-08T02:22:08.930Z,90.00
2019-02-08T02:22:43.474Z,89.90
2019-02-08T02:23:18.037Z,89.70
2019-02-08T02:23:56.136Z,89.60
2019-02-08T02:24:28.773Z,89.60
2019-02-08T02:25:03.563Z,89.70
2019-02-08T02:25:38.309Z,89.80
2019-02-08T02:26:12.886Z,89.70
2019-02-08T02:26:47.433Z,89.50
2019-02-08T02:27:21.934Z,89.50
2019-02-08T02:27:56.513Z,89.40
2019-02-08T02:28:31.063Z,89.40
2019-02-08T02:29:05.654Z,89.40
2019-02-08T02:29:40.208Z,89.40
2019-02-08T02:30:26.022Z,89.40
2019-02-08T02:31:00.582Z,89.40
2019-02-08T02:31:35.076Z,89.30
2019-02-08T02:32:09.578Z,89.20
2019-02-08T02:32:44.164Z,89.30
2019-02-08T02:33:18.708Z,89.20
2019-02-08T02:33:53.266Z,89.00
2019-02-08T02:34:27.797Z,89.00
2019-02-08T02:35:03.031Z,89.20
2019-02-08T02:35:37.874Z,89.20
2019-02-08T02:36:12.391Z,89.20
2019-02-08T02:36:48.049Z,89.10
2019-02-08T02:37:22.885Z,89.10
2019-02-08T02:37:57.521Z,89.10
2019-02-08T02:38:32.208Z,89.20
2019-02-08T02:39:08.653Z,89.30
2019-02-08T02:39:43.247Z,89.40
2019-02-08T02:40:20.165Z,89.60
2019-02-08T02:40:55.123Z,89.50
2019-02-08T02:41:33.101Z,89.60
2019-02-08T02:42:07.582Z,90.00
2019-02-08T02:42:42.276Z,89.60
2019-02-08T02:43:16.903Z,89.40
2019-02-08T02:43:51.566Z,89.60
2019-02-08T02:44:26.181Z,89.80
2019-02-08T02:45:00.699Z,89.70
2019-02-08T02:45:37.033Z,89.80
2019-02-08T02:46:12.088Z,89.70
2019-02-08T02:46:46.743Z,89.70
2019-02-08T02:47:21.542Z,89.80
2019-02-08T02:47:56.197Z,89.80
2019-02-08T02:48:30.824Z,90.00
2019-02-08T02:49:05.470Z,90.00
2019-02-08T02:49:40.071Z,90.00
2019-02-08T02:50:14.958Z,90.00
2019-02-08T02:50:49.769Z,90.00
2019-02-08T02:51:24.377Z,90.00
2019-02-08T02:51:58.891Z,90.00
2019-02-08T02:52:33.495Z,90.00
2019-02-08T02:53:08.329Z,90.00
2019-02-08T02:53:42.816Z,90.00
2019-02-08T02:54:17.399Z,90.00
2019-02-08T02:54:51.980Z,90.00
2019-02-08T02:55:29.138Z,90.00
2019-02-08T02:56:03.975Z,90.00
2019-02-08T02:56:38.988Z,90.10
2019-02-08T02:57:13.802Z,90.00
2019-02-08T02:57:48.642Z,90.00
2019-02-08T02:58:23.186Z,90.00
2019-02-08T02:58:57.801Z,90.00
2019-02-08T02:59:33.043Z,90.00
2019-02-08T03:00:30.254Z,90.20
2019-02-08T03:01:06.423Z,89.60
2019-02-08T03:01:41.214Z,89.30
2019-02-08T03:02:15.974Z,89.30
2019-02-08T03:02:50.792Z,89.20
2019-02-08T03:03:25.629Z,89.40
2019-02-08T03:04:00.326Z,89.40
2019-02-08T03:04:35.443Z,89.40
2019-02-08T03:05:10.516Z,89.40
2019-02-08T03:05:45.851Z,89.50
2019-02-08T03:06:20.439Z,89.50
2019-02-08T03:06:55.198Z,89.50
2019-02-08T03:07:29.765Z,89.40
2019-02-08T03:08:06.021Z,89.30
2019-02-08T03:08:40.578Z,89.30
2019-02-08T03:09:15.145Z,89.30
2019-02-08T03:09:49.689Z,89.30
2019-02-08T03:10:24.483Z,89.40
2019-02-08T03:10:59.175Z,89.50
2019-02-08T03:11:33.762Z,89.40
2019-02-08T03:12:08.333Z,89.40
2019-02-08T03:12:42.892Z,89.40
2019-02-08T03:13:17.484Z,89.50
2019-02-08T03:13:52.036Z,89.50
2019-02-08T03:14:26.575Z,89.60
2019-02-08T03:15:01.073Z,89.50
2019-02-08T03:15:36.206Z,89.50
2019-02-08T03:16:10.823Z,89.40
2019-02-08T03:16:45.406Z,89.40
2019-02-08T03:17:19.897Z,89.50
2019-02-08T03:17:54.431Z,89.50
2019-02-08T03:18:28.997Z,89.60
2019-02-08T03:19:03.710Z,89.50
2019-02-08T03:19:38.208Z,89.60
2019-02-08T03:20:15.397Z,89.50
2019-02-08T03:20:49.909Z,89.40
2019-02-08T03:21:24.502Z,89.30
2019-02-08T03:21:59.026Z,89.20
2019-02-08T03:22:33.663Z,89.10
2019-02-08T03:23:08.858Z,89.30
2019-02-08T03:23:45.048Z,89.50
2019-02-08T03:24:19.528Z,89.50
2019-02-08T03:24:54.027Z,89.50
2019-02-08T03:25:30.170Z,89.70
2019-02-08T03:26:04.796Z,89.80
2019-02-08T03:26:39.292Z,89.70
2019-02-08T03:27:13.783Z,89.60
2019-02-08T03:27:48.621Z,89.60
2019-02-08T03:28:23.181Z,89.60
2019-02-08T03:28:57.677Z,89.90
2019-02-08T03:29:34.872Z,89.80
2019-02-08T03:30:12.780Z,89.90
2019-02-08T03:30:51.725Z,89.80
2019-02-08T03:31:26.263Z,90.00
2019-02-08T03:32:00.903Z,89.80
2019-02-08T03:32:35.478Z,89.80
2019-02-08T03:33:10.100Z,89.70
2019-02-08T03:33:44.680Z,89.70
2019-02-08T03:34:19.233Z,89.80
2019-02-08T03:34:53.990Z,89.70
2019-02-08T03:35:28.820Z,90.10
2019-02-08T03:36:03.520Z,89.80
2019-02-08T03:36:38.019Z,89.70
2019-02-08T03:37:12.584Z,89.60
2019-02-08T03:37:47.416Z,89.30
2019-02-08T03:38:22.294Z,89.30
2019-02-08T03:38:57.288Z,89.20
2019-02-08T03:39:32.098Z,89.10
2019-02-08T03:40:09.715Z,89.20
2019-02-08T03:40:44.267Z,89.00
2019-02-08T03:41:19.099Z,88.90
2019-02-08T03:41:53.817Z,89.00
2019-02-08T03:42:28.359Z,88.90
2019-02-08T03:43:02.909Z,89.10
2019-02-08T03:43:37.545Z,89.30
2019-02-08T03:44:12.050Z,89.40
2019-02-08T03:44:46.696Z,89.40
2019-02-08T03:45:22.244Z,89.20
2019-02-08T03:45:56.869Z,89.20
2019-02-08T03:46:31.454Z,89.10
2019-02-08T03:47:06.020Z,89.00
2019-02-08T03:47:40.576Z,88.90
2019-02-08T03:48:15.150Z,88.90
2019-02-08T03:48:49.723Z,89.00
2019-02-08T03:49:24.394Z,89.00
2019-02-08T03:50:00.261Z,89.10
2019-02-08T03:50:35.087Z,89.20
2019-02-08T03:51:09.673Z,89.30
2019-02-08T03:51:44.422Z,89.40
2019-02-08T03:52:19.372Z,89.40
2019-02-08T03:52:54.732Z,89.50
2019-02-08T03:53:29.376Z,89.30
2019-02-08T03:54:04.164Z,88.80
2019-02-08T03:54:45.005Z,88.50
2019-02-08T03:55:21.821Z,88.20
2019-02-08T03:55:58.762Z,88.10
2019-02-08T03:56:35.269Z,88.30
2019-02-08T03:57:10.107Z,88.50
2019-02-08T03:57:45.056Z,88.30
2019-02-08T03:58:20.056Z,88.30
2019-02-08T03:58:54.836Z,88.20
2019-02-08T03:59:29.621Z,88.20
2019-02-08T04:00:07.785Z,88.20
2019-02-08T04:00:46.800Z,88.20
2019-02-08T04:01:21.711Z,88.30
2019-02-08T04:01:56.455Z,88.20
2019-02-08T04:02:31.333Z,88.20
2019-02-08T04:03:06.148Z,88.00
2019-02-08T04:03:43.320Z,88.10
2019-02-08T04:04:18.060Z,88.00
2019-02-08T04:04:52.676Z,88.00
2019-02-08T04:05:27.778Z,87.80
2019-02-08T04:06:03.250Z,87.80
2019-02-08T04:06:38.283Z,87.90
2019-02-08T04:07:12.965Z,87.90
2019-02-08T04:07:51.845Z,88.20
2019-02-08T04:08:26.755Z,88.00
2019-02-08T04:09:01.391Z,87.70
2019-02-08T04:09:36.698Z,87.70
2019-02-08T04:10:14.703Z,87.70
2019-02-08T04:10:49.377Z,87.60
2019-02-08T04:11:26.467Z,87.70
2019-02-08T04:12:01.606Z,87.80
2019-02-08T04:12:36.359Z,87.90
2019-02-08T04:13:11.044Z,87.90
2019-02-08T04:13:45.543Z,88.00
2019-02-08T04:14:20.196Z,87.70
2019-02-08T04:14:54.958Z,87.80
2019-02-08T04:15:29.581Z,87.80
2019-02-08T04:16:05.026Z,87.60
2019-02-08T04:16:39.600Z,87.40
2019-02-08T04:17:14.180Z,87.40
2019-02-08T04:17:48.758Z,87.40
2019-02-08T04:18:23.492Z,87.30
2019-02-08T04:18:58.060Z,87.20
2019-02-08T04:19:32.557Z,87.00
2019-02-08T04:20:10.111Z,86.90
2019-02-08T04:20:44.680Z,86.90
2019-02-08T04:21:19.173Z,86.70
2019-02-08T04:21:53.700Z,86.60
2019-02-08T04:22:28.255Z,86.50
2019-02-08T04:23:02.751Z,86.60
2019-02-08T04:23:37.237Z,86.60
2019-02-08T04:24:11.797Z,86.60
2019-02-08T04:24:46.316Z,86.50
2019-02-08T04:25:20.867Z,86.70
2019-02-08T04:25:55.351Z,86.70
2019-02-08T04:26:29.835Z,86.70
2019-02-08T04:27:05.071Z,86.60
2019-02-08T04:27:39.900Z,86.60
2019-02-08T04:28:14.472Z,86.70
2019-02-08T04:28:49.022Z,86.70
2019-02-08T04:29:23.516Z,86.70
2019-02-08T04:29:58.017Z,86.80
2019-02-08T04:30:32.840Z,86.90
2019-02-08T04:31:07.497Z,87.00
2019-02-08T04:31:42.698Z,86.90
2019-02-08T04:32:17.308Z,86.60
2019-02-08T04:32:51.875Z,86.70
2019-02-08T04:33:26.383Z,86.60
2019-02-08T04:34:00.958Z,86.30
2019-02-08T04:34:35.461Z,86.30
2019-02-08T04:35:10.283Z,86.30
2019-02-08T04:35:44.773Z,86.40
2019-02-08T04:36:19.362Z,86.60
2019-02-08T04:36:53.921Z,86.40
2019-02-08T04:37:28.416Z,86.40
2019-02-08T04:38:03.057Z,86.60
2019-02-08T04:38:37.642Z,86.50
2019-02-08T04:39:12.555Z,86.40
2019-02-08T04:39:47.049Z,86.50
2019-02-08T04:40:23.866Z,86.10
2019-02-08T04:40:58.353Z,86.30
2019-02-08T04:41:32.911Z,86.40
2019-02-08T04:42:07.662Z,86.60
2019-02-08T04:42:43.491Z,86.60
2019-02-08T04:43:19.449Z,86.30
2019-02-08T04:43:53.988Z,86.40
2019-02-08T04:44:28.479Z,86.50
2019-02-08T04:45:03.043Z,86.60
2019-02-08T04:45:37.649Z,86.60
2019-02-08T04:46:12.197Z,86.60
2019-02-08T04:46:46.689Z,86.50
2019-02-08T04:47:21.179Z,86.30
2019-02-08T04:47:55.844Z,86.40
2019-02-08T04:48:30.349Z,86.40
2019-02-08T04:49:04.936Z,86.60
2019-02-08T04:49:39.520Z,86.50
2019-02-08T04:50:22.584Z,86.40
2019-02-08T04:50:57.148Z,86.40
2019-02-08T04:51:31.790Z,86.20
2019-02-08T04:52:06.281Z,86.80
2019-02-08T04:52:40.845Z,86.20
2019-02-08T04:53:15.351Z,86.20
2019-02-08T04:53:49.913Z,86.10
2019-02-08T04:54:24.432Z,86.00
2019-02-08T04:54:59.286Z,86.10
2019-02-08T04:55:33.830Z,86.00
2019-02-08T04:56:08.341Z,86.00
2019-02-08T04:56:42.821Z,86.10
2019-02-08T04:57:17.339Z,86.30
2019-02-08T04:57:51.990Z,86.40
2019-02-08T04:58:26.556Z,86.40
2019-02-08T04:59:01.123Z,86.50
2019-02-08T04:59:35.642Z,86.50
2019-02-08T05:00:15.880Z,86.50
2019-02-08T05:00:50.456Z,86.50
2019-02-08T05:01:25.014Z,86.30
2019-02-08T05:01:59.572Z,86.20
2019-02-08T05:02:34.149Z,86.10
2019-02-08T05:03:08.653Z,86.10
2019-02-08T05:03:43.241Z,86.30
2019-02-08T05:04:17.731Z,86.20
2019-02-08T05:04:52.221Z,86.40
2019-02-08T05:05:26.823Z,86.50
2019-02-08T05:06:01.396Z,86.40
2019-02-08T05:06:35.897Z,86.30
2019-02-08T05:07:10.392Z,86.90
2019-02-08T05:07:44.901Z,86.10
2019-02-08T05:08:19.487Z,85.90
2019-02-08T05:08:53.960Z,86.00
2019-02-08T05:09:28.446Z,86.10
2019-02-08T05:10:04.780Z,86.00
2019-02-08T05:10:39.285Z,85.80
2019-02-08T05:11:14.043Z,85.50
2019-02-08T05:11:48.548Z,85.60
2019-02-08T05:12:23.437Z,85.70
2019-02-08T05:12:58.089Z,85.80
2019-02-08T05:13:32.656Z,85.60
2019-02-08T05:14:07.296Z,85.80
2019-02-08T05:14:41.880Z,85.90
2019-02-08T05:15:16.621Z,86.00
2019-02-08T05:15:51.172Z,85.90
2019-02-08T05:16:25.687Z,85.90
2019-02-08T05:17:00.252Z,86.00
2019-02-08T05:17:34.813Z,86.00
2019-02-08T05:18:09.439Z,86.00
2019-02-08T05:18:43.958Z,86.20
2019-02-08T05:19:18.511Z,86.20
2019-02-08T05:19:52.992Z,86.30
2019-02-08T05:20:32.127Z,86.30
2019-02-08T05:21:06.667Z,86.30
2019-02-08T05:21:41.158Z,86.40
2019-02-08T05:22:15.727Z,86.10
2019-02-08T05:22:50.450Z,86.00
2019-02-08T05:23:25.012Z,86.00
2019-02-08T05:23:59.489Z,86.10
2019-02-08T05:24:33.990Z,86.20
2019-02-08T05:25:09.291Z,86.10
2019-02-08T05:25:43.777Z,86.00
2019-02-08T05:26:18.275Z,86.00
2019-02-08T05:26:52.837Z,85.90
2019-02-08T05:27:27.392Z,86.00
2019-02-08T05:28:01.985Z,86.00
2019-02-08T05:28:36.528Z,86.10
2019-02-08T05:29:11.011Z,86.10
2019-02-08T05:29:45.534Z,86.20
2019-02-08T05:30:26.013Z,86.10
2019-02-08T05:31:00.505Z,86.00
2019-02-08T05:31:35.009Z,85.90
2019-02-08T05:32:09.508Z,85.80
2019-02-08T05:32:44.026Z,85.60
2019-02-08T05:33:18.558Z,85.60
2019-02-08T05:33:53.046Z,85.50
2019-02-08T05:34:27.539Z,85.40
2019-02-08T05:35:02.132Z,85.50
2019-02-08T05:35:36.943Z,85.60
2019-02-08T05:36:11.505Z,85.80
2019-02-08T05:36:46.253Z,85.60
2019-02-08T05:37:20.740Z,85.70
2019-02-08T05:37:55.483Z,85.60
2019-02-08T05:38:29.982Z,85.80
2019-02-08T05:39:07.881Z,85.90
2019-02-08T05:39:42.373Z,85.80
2019-02-08T05:40:18.932Z,85.90
2019-02-08T05:40:53.501Z,85.70
2019-02-08T05:41:27.984Z,85.50
2019-02-08T05:42:02.489Z,85.40
2019-02-08T05:42:36.980Z,85.50
2019-02-08T05:43:11.568Z,85.50
2019-02-08T05:43:46.149Z,85.40
2019-02-08T05:44:20.632Z,85.20
2019-02-08T05:44:55.125Z,85.30
2019-02-08T05:45:29.848Z,85.50
2019-02-08T05:46:04.429Z,85.40
2019-02-08T05:46:38.904Z,85.50
2019-02-08T05:47:13.464Z,85.60
2019-02-08T05:47:47.948Z,85.70
2019-02-08T05:48:22.475Z,85.60
2019-02-08T05:48:57.018Z,85.50
2019-02-08T05:49:31.514Z,85.30
2019-02-08T05:50:09.107Z,85.20
2019-02-08T05:50:43.669Z,85.00
2019-02-08T05:51:18.431Z,84.80
2019-02-08T05:51:53.047Z,84.70
2019-02-08T05:52:27.678Z,85.40
2019-02-08T05:53:02.205Z,84.80
2019-02-08T05:53:36.705Z,84.80
2019-02-08T05:54:11.199Z,85.00
2019-02-08T05:54:45.761Z,85.00
2019-02-08T05:55:24.254Z,85.30
2019-02-08T05:55:58.813Z,85.20
2019-02-08T05:56:33.365Z,85.30
2019-02-08T05:57:07.855Z,85.40
2019-02-08T05:57:42.467Z,85.40
2019-02-08T05:58:17.139Z,85.50
2019-02-08T05:58:51.641Z,85.50
2019-02-08T05:59:26.204Z,85.40
2019-02-08T06:00:00.758Z,85.40
2019-02-08T06:00:44.893Z,85.50
2019-02-08T06:01:19.394Z,85.40
2019-02-08T06:01:53.903Z,85.40
2019-02-08T06:02:28.393Z,85.30
2019-02-08T06:03:02.961Z,85.30
2019-02-08T06:03:37.833Z,85.30
2019-02-08T06:04:12.433Z,85.30
2019-02-08T06:04:46.934Z,85.30
2019-02-08T06:05:23.348Z,85.30
2019-02-08T06:05:57.992Z,85.20
2019-02-08T06:06:32.492Z,85.10
2019-02-08T06:07:06.990Z,85.10
2019-02-08T06:07:41.553Z,85.10
2019-02-08T06:08:16.048Z,85.20
2019-02-08T06:08:50.567Z,85.30
2019-02-08T06:09:25.070Z,85.20
2019-02-08T06:09:59.668Z,85.30
2019-02-08T06:10:34.170Z,85.40
2019-02-08T06:11:08.719Z,85.70
2019-02-08T06:11:43.217Z,85.80
2019-02-08T06:12:17.840Z,85.70
2019-02-08T06:12:52.409Z,85.70
2019-02-08T06:13:27.045Z,85.70
2019-02-08T06:14:01.617Z,85.40
2019-02-08T06:14:36.210Z,85.40
2019-02-08T06:15:25.268Z,85.40
2019-02-08T06:15:59.848Z,85.70
2019-02-08T06:16:34.539Z,85.60
2019-02-08T06:17:09.041Z,85.40
2019-02-08T06:17:43.634Z,85.60
2019-02-08T06:18:18.254Z,85.60
2019-02-08T06:18:52.763Z,85.80
2019-02-08T06:19:27.339Z,85.60
2019-02-08T06:20:01.836Z,85.50
2019-02-08T06:20:36.553Z,85.50
2019-02-08T06:21:11.148Z,85.70
2019-02-08T06:21:45.705Z,85.50
2019-02-08T06:22:20.196Z,85.60
2019-02-08T06:22:54.825Z,85.60
2019-02-08T06:23:29.881Z,85.70
2019-02-08T06:24:04.835Z,85.60
2019-02-08T06:24:39.448Z,85.80
2019-02-08T06:25:15.810Z,85.80
2019-02-08T06:25:50.521Z,85.80
2019-02-08T06:26:25.105Z,85.80
2019-02-08T06:26:59.672Z,85.80
2019-02-08T06:27:34.273Z,86.20
2019-02-08T06:28:08.824Z,86.90
2019-02-08T06:28:43.323Z,87.20
2019-02-08T06:29:17.962Z,87.10
2019-02-08T06:29:52.484Z,86.60
2019-02-08T06:30:29.290Z,86.60
2019-02-08T06:31:04.046Z,86.40
2019-02-08T06:31:38.546Z,86.20
2019-02-08T06:32:13.120Z,86.10
2019-02-08T06:32:47.613Z,85.90
2019-02-08T06:33:22.111Z,85.80
2019-02-08T06:33:56.600Z,85.90
2019-02-08T06:34:31.099Z,85.70
2019-02-08T06:35:06.540Z,85.50
2019-02-08T06:35:41.175Z,85.70
2019-02-08T06:36:15.743Z,85.60
2019-02-08T06:36:50.247Z,85.70
2019-02-08T06:37:24.816Z,85.60
2019-02-08T06:37:59.383Z,85.60
2019-02-08T06:38:33.923Z,85.70
2019-02-08T06:39:08.861Z,85.60
2019-02-08T06:39:43.412Z,85.60
2019-02-08T06:40:26.290Z,85.70
2019-02-08T06:41:00.920Z,85.70
2019-02-08T06:41:35.413Z,85.60
2019-02-08T06:42:10.026Z,85.70
2019-02-08T06:42:44.665Z,85.70
2019-02-08T06:43:19.269Z,85.60
2019-02-08T06:43:53.819Z,85.50
2019-02-08T06:44:28.333Z,85.40
2019-02-08T06:45:02.908Z,85.20
2019-02-08T06:45:37.715Z,85.30
2019-02-08T06:46:13.745Z,85.50
2019-02-08T06:46:48.570Z,85.50
2019-02-08T06:47:23.408Z,85.30
2019-02-08T06:47:58.080Z,85.10
2019-02-08T06:48:32.571Z,85.20
2019-02-08T06:49:07.208Z,85.30
2019-02-08T06:49:41.684Z,85.40
2019-02-08T06:50:21.651Z,85.50
2019-02-08T06:50:56.136Z,85.40
2019-02-08T06:51:30.631Z,85.30
2019-02-08T06:52:05.127Z,85.20
2019-02-08T06:52:39.626Z,85.40
2019-02-08T06:53:14.179Z,85.40
2019-02-08T06:53:48.690Z,85.50
2019-02-08T06:54:23.262Z,85.50
2019-02-08T06:54:57.785Z,85.50
2019-02-08T06:55:32.337Z,85.40
2019-02-08T06:56:08.471Z,85.20
2019-02-08T06:56:47.878Z,85.20
2019-02-08T06:57:24.000Z,85.00
2019-02-08T06:58:06.188Z,85.00
2019-02-08T06:58:42.364Z,85.10
2019-02-08T06:59:30.598Z,85.20
2019-02-08T07:00:11.771Z,85.40
2019-02-08T07:01:01.289Z,85.20
2019-02-08T07:01:43.100Z,85.30
2019-02-08T07:02:19.263Z,85.40
2019-02-08T07:03:07.554Z,85.40
2019-02-08T07:03:46.701Z,85.20
2019-02-08T07:04:22.841Z,85.20
2019-02-08T07:05:14.995Z,85.10
2019-02-08T07:05:56.647Z,85.00
2019-02-08T07:06:32.904Z,85.10
2019-02-08T07:07:09.142Z,85.20
2019-02-08T07:07:47.956Z,85.10
2019-02-08T07:08:27.036Z,85.00
2019-02-08T07:09:05.949Z,85.10
2019-02-08T07:09:42.223Z,85.30
2019-02-08T07:10:21.163Z,85.20
2019-02-08T07:11:09.467Z,85.00
2019-02-08T07:11:48.006Z,84.80
2019-02-08T07:12:29.832Z,84.90
2019-02-08T07:13:06.095Z,84.70
2019-02-08T07:13:50.691Z,84.50
2019-02-08T07:14:41.647Z,84.50
2019-02-08T07:15:23.450Z,84.40
2019-02-08T07:15:59.661Z,84.30
2019-02-08T07:16:41.581Z,84.20
2019-02-08T07:17:17.719Z,84.30
2019-02-08T07:18:03.022Z,84.40
2019-02-08T07:18:48.153Z,84.60
2019-02-08T07:19:30.010Z,84.40
2019-02-08T07:20:09.603Z,84.50
2019-02-08T07:20:54.441Z,84.60
2019-02-08T07:21:36.396Z,84.70
2019-02-08T07:22:21.592Z,84.80
2019-02-08T07:22:57.724Z,84.50
2019-02-08T07:23:42.575Z,84.40
2019-02-08T07:24:24.581Z,84.50
2019-02-08T07:25:18.404Z,84.50
2019-02-08T07:26:06.752Z,84.50
2019-02-08T07:26:42.947Z,84.40
2019-02-08T07:27:25.450Z,84.10
2019-02-08T07:28:07.401Z,84.30
2019-02-08T07:28:43.799Z,84.30
2019-02-08T07:29:19.987Z,83.90
2019-02-08T07:30:12.448Z,83.70
2019-02-08T07:30:48.656Z,83.60
2019-02-08T07:31:42.550Z,83.50
2019-02-08T07:32:21.649Z,83.50
2019-02-08T07:33:00.612Z,83.60
2019-02-08T07:33:37.107Z,83.60
2019-02-08T07:34:13.767Z,83.50
2019-02-08T07:35:08.114Z,83.50
2019-02-08T07:35:50.503Z,83.50
2019-02-08T07:36:35.388Z,83.50
2019-02-08T07:37:14.608Z,83.70
2019-02-08T07:37:53.554Z,83.50